createdAt,value
2018-12-06T00:00:44.546Z,72.22
2018-12-06T00:01:48.721Z,72.75
2018-12-06T00:02:52.719Z,72.63
2018-12-06T00:03:56.780Z,72.61
2018-12-06T00:05:00.833Z,72.07
2018-12-06T00:06:04.988Z,72.70
2018-12-06T00:07:09.002Z,72.62
2018-12-06T00:08:16.230Z,72.56
2018-12-06T00:09:20.198Z,72.64
2018-12-06T00:10:24.202Z,72.08
2018-12-06T00:11:28.237Z,72.65
2018-12-06T00:12:32.314Z,72.65
2018-12-06T00:13:36.277Z,72.35
2018-12-06T00:14:40.306Z,72.70
2018-12-06T00:15:44.286Z,72.78
2018-12-06T00:16:55.783Z,72.72
2018-12-06T00:17:59.792Z,72.75
2018-12-06T00:19:08.614Z,72.45
2018-12-06T00:20:12.674Z,72.15
2018-12-06T00:21:16.748Z,72.17
2018-12-06T00:22:20.902Z,72.67
2018-12-06T00:23:25.277Z,71.79
2018-12-06T00:24:29.404Z,72.35
2018-12-06T00:25:33.498Z,72.71
2018-12-06T00:26:37.630Z,71.98
2018-12-06T00:27:41.688Z,72.27
2018-12-06T00:28:45.730Z,72.83
2018-12-06T00:30:01.214Z,72.84
2018-12-06T00:31:05.221Z,73.01
2018-12-06T00:32:09.251Z,72.81
2018-12-06T00:33:13.307Z,72.89
2018-12-06T00:34:17.495Z,72.82
2018-12-06T00:35:21.777Z,72.33
2018-12-06T00:36:25.799Z,72.28
2018-12-06T00:37:29.967Z,72.72
2018-12-06T00:38:34.126Z,72.49
2018-12-06T00:39:38.159Z,72.71
2018-12-06T00:40:42.800Z,73.05
2018-12-06T00:41:46.843Z,73.13
2018-12-06T00:42:50.903Z,72.64
2018-12-06T00:43:55.036Z,72.54
2018-12-06T00:45:01.866Z,72.94
2018-12-06T00:46:05.963Z,73.23
2018-12-06T00:47:09.987Z,73.15
2018-12-06T00:48:14.095Z,72.67
2018-12-06T00:49:18.215Z,72.59
2018-12-06T00:50:22.317Z,73.21
2018-12-06T00:51:26.371Z,73.14
2018-12-06T00:52:30.394Z,72.94
2018-12-06T00:53:34.539Z,73.10
2018-12-06T00:54:38.676Z,72.98
2018-12-06T00:55:42.752Z,73.39
2018-12-06T00:56:46.860Z,72.80
2018-12-06T00:57:50.911Z,73.03
2018-12-06T00:58:54.957Z,72.88
2018-12-06T00:59:58.994Z,72.56
2018-12-06T01:01:03.087Z,72.46
2018-12-06T01:02:09.086Z,72.66
2018-12-06T01:03:13.207Z,72.64
2018-12-06T01:04:17.327Z,72.64
2018-12-06T01:05:21.453Z,72.80
2018-12-06T01:06:25.689Z,73.24
2018-12-06T01:07:29.834Z,72.68
2018-12-06T01:08:33.970Z,72.77
2018-12-06T01:09:38.048Z,72.78
2018-12-06T01:10:42.199Z,73.29
2018-12-06T01:11:46.236Z,72.90
2018-12-06T01:12:50.354Z,72.88
2018-12-06T01:13:54.393Z,72.86
2018-12-06T01:14:58.446Z,73.35
2018-12-06T01:16:02.697Z,72.92
2018-12-06T01:17:06.855Z,72.87
2018-12-06T01:18:11.000Z,73.14
2018-12-06T01:19:15.020Z,72.81
2018-12-06T01:20:19.068Z,73.22
2018-12-06T01:21:23.243Z,72.87
2018-12-06T01:22:27.279Z,73.19
2018-12-06T01:23:31.551Z,72.93
2018-12-06T01:24:35.695Z,72.87
2018-12-06T01:25:39.817Z,73.06
2018-12-06T01:26:43.842Z,72.98
2018-12-06T01:27:47.986Z,73.56
2018-12-06T01:28:52.104Z,73.25
2018-12-06T01:29:56.217Z,73.31
2018-12-06T01:31:00.399Z,73.38
2018-12-06T01:32:04.496Z,73.45
2018-12-06T01:33:08.698Z,73.54
2018-12-06T01:34:12.834Z,73.72
2018-12-06T01:35:16.918Z,73.02
2018-12-06T01:36:21.000Z,73.49
2018-12-06T01:37:25.071Z,73.18
2018-12-06T01:38:29.103Z,73.13
2018-12-06T01:39:33.417Z,73.54
2018-12-06T01:40:37.464Z,73.15
2018-12-06T01:41:41.625Z,73.12
2018-12-06T01:42:45.690Z,73.15
2018-12-06T01:43:49.879Z,73.46
2018-12-06T01:44:53.906Z,73.47
2018-12-06T01:45:57.963Z,73.16
2018-12-06T01:47:02.040Z,73.13
2018-12-06T01:48:06.410Z,73.18
2018-12-06T01:49:10.451Z,73.13
2018-12-06T01:50:14.701Z,73.78
2018-12-06T01:51:18.906Z,73.35
2018-12-06T01:52:22.943Z,73.94
2018-12-06T01:53:27.022Z,73.45
2018-12-06T01:54:31.051Z,73.41
2018-12-06T01:55:35.212Z,73.67
2018-12-06T01:56:39.295Z,73.43
2018-12-06T01:57:43.314Z,73.96
2018-12-06T01:58:47.419Z,74.00
2018-12-06T01:59:51.592Z,73.48
2018-12-06T02:00:55.723Z,74.04
2018-12-06T02:01:59.853Z,73.75
2018-12-06T02:03:03.985Z,73.48
2018-12-06T02:04:08.149Z,73.51
2018-12-06T02:05:12.241Z,73.91
2018-12-06T02:06:16.265Z,73.68
2018-12-06T02:07:20.397Z,73.93
2018-12-06T02:08:24.405Z,73.51
2018-12-06T02:09:29.974Z,73.97
2018-12-06T02:10:34.028Z,73.72
2018-12-06T02:11:39.723Z,74.05
2018-12-06T02:12:43.727Z,73.60
2018-12-06T02:13:47.742Z,73.54
2018-12-06T02:14:51.749Z,73.60
2018-12-06T02:15:55.768Z,74.00
2018-12-06T02:16:59.813Z,73.73
2018-12-06T02:18:04.038Z,73.89
2018-12-06T02:19:08.371Z,73.67
2018-12-06T02:20:12.379Z,74.01
2018-12-06T02:21:16.378Z,74.08
2018-12-06T02:22:20.443Z,73.90
2018-12-06T02:23:24.496Z,73.79
2018-12-06T02:24:28.776Z,74.45
2018-12-06T02:25:32.791Z,74.12
2018-12-06T02:26:36.869Z,74.61
2018-12-06T02:27:40.985Z,74.58
2018-12-06T02:28:45.121Z,74.63
2018-12-06T02:29:54.275Z,74.20
2018-12-06T02:30:58.438Z,74.31
2018-12-06T02:32:02.483Z,74.81
2018-12-06T02:33:06.729Z,74.49
2018-12-06T02:34:11.273Z,74.53
2018-12-06T02:35:15.278Z,74.57
2018-12-06T02:36:19.598Z,74.66
2018-12-06T02:37:23.738Z,75.19
2018-12-06T02:38:27.803Z,74.86
2018-12-06T02:39:31.794Z,75.51
2018-12-06T02:40:36.030Z,75.55
2018-12-06T02:41:40.185Z,75.63
2018-12-06T02:42:44.200Z,75.83
2018-12-06T02:43:48.201Z,75.93
2018-12-06T02:44:52.186Z,75.88
2018-12-06T02:45:56.278Z,75.79
2018-12-06T02:47:00.358Z,75.47
2018-12-06T02:48:04.467Z,75.55
2018-12-06T02:49:08.615Z,75.87
2018-12-06T02:50:12.751Z,76.02
2018-12-06T02:51:16.889Z,75.94
2018-12-06T02:52:21.114Z,76.31
2018-12-06T02:53:25.324Z,76.06
2018-12-06T02:54:29.411Z,76.55
2018-12-06T02:55:33.407Z,76.17
2018-12-06T02:56:37.429Z,76.28
2018-12-06T02:57:41.535Z,76.91
2018-12-06T02:58:45.537Z,76.28
2018-12-06T02:59:49.617Z,77.12
2018-12-06T03:00:53.593Z,76.53
2018-12-06T03:01:57.721Z,77.21
2018-12-06T03:03:01.753Z,77.34
2018-12-06T03:04:05.848Z,77.25
2018-12-06T03:05:09.958Z,77.43
2018-12-06T03:06:13.941Z,77.38
2018-12-06T03:07:17.967Z,77.11
2018-12-06T03:08:21.958Z,77.61
2018-12-06T03:09:26.053Z,77.23
2018-12-06T03:10:30.133Z,77.26
2018-12-06T03:11:34.239Z,77.76
2018-12-06T03:12:38.407Z,77.27
2018-12-06T03:13:42.537Z,77.47
2018-12-06T03:14:46.623Z,77.45
2018-12-06T03:15:50.628Z,77.99
2018-12-06T03:16:54.798Z,77.53
2018-12-06T03:17:58.933Z,77.65
2018-12-06T03:19:02.976Z,78.23
2018-12-06T03:20:07.403Z,78.00
2018-12-06T03:21:11.577Z,77.66
2018-12-06T03:22:15.581Z,77.66
2018-12-06T03:23:19.601Z,77.62
2018-12-06T03:24:23.676Z,77.50
2018-12-06T03:25:27.999Z,77.60
2018-12-06T03:26:32.090Z,77.71
2018-12-06T03:27:36.209Z,77.57
2018-12-06T03:28:40.304Z,78.06
2018-12-06T03:29:44.381Z,77.57
2018-12-06T03:30:48.382Z,78.11
2018-12-06T03:31:52.490Z,77.60
2018-12-06T03:32:56.617Z,78.09
2018-12-06T03:34:00.748Z,77.50
2018-12-06T03:35:05.224Z,78.19
2018-12-06T03:36:09.396Z,78.08
2018-12-06T03:37:13.381Z,78.02
2018-12-06T03:38:17.504Z,78.25
2018-12-06T03:39:21.633Z,78.20
2018-12-06T03:40:25.688Z,77.69
2018-12-06T03:41:29.723Z,77.59
2018-12-06T03:42:33.779Z,78.08
2018-12-06T03:43:37.881Z,78.08
2018-12-06T03:44:42.003Z,77.74
2018-12-06T03:45:45.995Z,77.73
2018-12-06T03:46:50.145Z,77.64
2018-12-06T03:47:54.142Z,78.11
2018-12-06T03:48:58.180Z,77.53
2018-12-06T03:50:02.226Z,78.23
2018-12-06T03:51:06.305Z,77.95
2018-12-06T03:52:10.296Z,77.78
2018-12-06T03:53:14.308Z,78.05
2018-12-06T03:54:18.364Z,78.08
2018-12-06T03:55:22.530Z,77.58
2018-12-06T03:56:26.623Z,78.07
2018-12-06T03:57:30.693Z,77.80
2018-12-06T03:58:34.713Z,78.17
2018-12-06T03:59:38.767Z,78.07
2018-12-06T04:00:42.912Z,77.83
2018-12-06T04:01:47.484Z,77.55
2018-12-06T04:02:51.546Z,77.89
2018-12-06T04:03:55.648Z,77.45
2018-12-06T04:04:59.700Z,77.86
2018-12-06T04:06:03.865Z,77.55
2018-12-06T04:07:07.953Z,77.58
2018-12-06T04:08:12.197Z,78.04
2018-12-06T04:09:16.252Z,77.43
2018-12-06T04:10:20.297Z,77.48
2018-12-06T04:11:24.361Z,78.10
2018-12-06T04:12:28.566Z,78.04
2018-12-06T04:13:32.609Z,77.18
2018-12-06T04:14:36.775Z,77.51
2018-12-06T04:15:40.924Z,78.04
2018-12-06T04:16:45.397Z,78.16
2018-12-06T04:17:49.433Z,78.10
2018-12-06T04:18:53.922Z,77.60
2018-12-06T04:19:57.905Z,78.35
2018-12-06T04:21:02.131Z,78.43
2018-12-06T04:22:06.298Z,78.14
2018-12-06T04:23:10.472Z,78.00
2018-12-06T04:24:14.452Z,77.98
2018-12-06T04:25:18.569Z,77.67
2018-12-06T04:26:22.766Z,77.36
2018-12-06T04:27:26.830Z,77.89
2018-12-06T04:28:30.878Z,77.91
2018-12-06T04:29:34.893Z,77.57
2018-12-06T04:30:38.887Z,78.21
2018-12-06T04:31:42.869Z,77.91
2018-12-06T04:32:46.886Z,77.63
2018-12-06T04:33:50.979Z,78.19
2018-12-06T04:34:55.012Z,78.08
2018-12-06T04:35:59.255Z,77.55
2018-12-06T04:37:03.266Z,78.01
2018-12-06T04:38:07.323Z,77.48
2018-12-06T04:39:11.362Z,77.51
2018-12-06T04:40:15.526Z,77.24
2018-12-06T04:41:19.525Z,77.31
2018-12-06T04:42:23.642Z,77.91
2018-12-06T04:43:27.632Z,77.77
2018-12-06T04:44:31.646Z,77.58
2018-12-06T04:45:35.863Z,78.04
2018-12-06T04:46:39.916Z,77.60
2018-12-06T04:47:43.963Z,77.49
2018-12-06T04:48:47.947Z,77.38
2018-12-06T04:49:52.031Z,77.42
2018-12-06T04:50:56.055Z,77.96
2018-12-06T04:52:00.047Z,77.88
2018-12-06T04:53:04.182Z,77.52
2018-12-06T04:55:18.515Z,77.56
2018-12-06T04:56:22.618Z,78.13
2018-12-06T04:57:26.687Z,77.37
2018-12-06T04:58:30.743Z,78.28
2018-12-06T04:59:41.467Z,77.66
2018-12-06T05:00:45.519Z,77.81
2018-12-06T05:01:49.612Z,77.24
2018-12-06T05:02:53.717Z,77.34
2018-12-06T05:03:57.864Z,77.61
2018-12-06T05:05:01.951Z,77.31
2018-12-06T05:06:06.132Z,77.70
2018-12-06T05:07:10.178Z,77.28
2018-12-06T05:08:14.341Z,77.76
2018-12-06T05:09:18.408Z,77.60
2018-12-06T05:10:22.476Z,77.76
2018-12-06T05:11:26.481Z,77.31
2018-12-06T05:12:30.479Z,77.17
2018-12-06T05:13:34.446Z,77.17
2018-12-06T05:14:38.983Z,77.50
2018-12-06T05:15:42.978Z,77.13
2018-12-06T05:16:47.003Z,77.21
2018-12-06T05:17:51.002Z,77.33
2018-12-06T05:18:55.069Z,77.80
2018-12-06T05:19:59.199Z,77.21
2018-12-06T05:21:03.272Z,77.45
2018-12-06T05:22:07.443Z,77.78
2018-12-06T05:23:11.437Z,77.47
2018-12-06T05:24:15.462Z,77.75
2018-12-06T05:25:19.450Z,77.27
2018-12-06T05:26:23.668Z,77.63
2018-12-06T05:27:27.806Z,77.54
2018-12-06T05:28:31.878Z,77.67
2018-12-06T05:29:35.922Z,77.06
2018-12-06T05:30:39.930Z,76.97
2018-12-06T05:31:44.064Z,77.53
2018-12-06T05:32:48.057Z,77.14
2018-12-06T05:33:52.262Z,77.70
2018-12-06T05:34:56.374Z,77.21
2018-12-06T05:36:00.431Z,77.67
2018-12-06T05:37:04.531Z,77.33
2018-12-06T05:38:08.715Z,77.24
2018-12-06T05:39:12.802Z,77.98
2018-12-06T05:40:16.917Z,77.36
2018-12-06T05:41:20.943Z,77.86
2018-12-06T05:42:25.012Z,77.40
2018-12-06T05:43:29.046Z,78.05
2018-12-06T05:44:33.246Z,77.53
2018-12-06T05:45:37.246Z,78.14
2018-12-06T05:46:41.439Z,78.29
2018-12-06T05:47:45.620Z,77.76
2018-12-06T05:48:49.730Z,77.55
2018-12-06T05:49:53.787Z,78.42
2018-12-06T05:50:58.111Z,77.89
2018-12-06T05:52:02.216Z,78.42
2018-12-06T05:53:06.546Z,77.94
2018-12-06T05:54:10.634Z,77.90
2018-12-06T05:55:14.628Z,77.85
2018-12-06T05:56:18.798Z,78.11
2018-12-06T05:57:22.796Z,78.59
2018-12-06T05:58:26.867Z,77.99
2018-12-06T05:59:30.929Z,78.57
2018-12-06T06:00:35.159Z,78.95
2018-12-06T06:01:39.231Z,78.14
2018-12-06T06:02:43.287Z,78.69
2018-12-06T06:03:47.382Z,78.21
2018-12-06T06:04:51.469Z,78.89
2018-12-06T06:05:55.666Z,78.92
2018-12-06T06:07:01.889Z,78.59
2018-12-06T06:08:06.004Z,78.47
2018-12-06T06:09:09.975Z,78.96
2018-12-06T06:10:13.967Z,78.51
2018-12-06T06:11:18.106Z,78.53
2018-12-06T06:12:22.224Z,79.14
2018-12-06T06:13:26.258Z,78.79
2018-12-06T06:14:30.288Z,79.27
2018-12-06T06:15:34.479Z,78.63
2018-12-06T06:16:38.547Z,78.50
2018-12-06T06:17:42.613Z,79.30
2018-12-06T06:18:46.647Z,78.83
2018-12-06T06:19:50.630Z,79.63
2018-12-06T06:20:54.705Z,79.50
2018-12-06T06:21:58.897Z,78.98
2018-12-06T06:23:02.968Z,78.99
2018-12-06T06:24:07.302Z,79.03
2018-12-06T06:25:11.404Z,79.61
2018-12-06T06:26:15.723Z,79.62
2018-12-06T06:27:20.197Z,79.38
2018-12-06T06:28:24.304Z,79.69
2018-12-06T06:29:28.430Z,79.36
2018-12-06T06:30:32.501Z,79.59
2018-12-06T06:31:36.580Z,80.00
2018-12-06T06:32:40.863Z,79.41
2018-12-06T06:33:44.854Z,80.13
2018-12-06T06:34:49.034Z,79.35
2018-12-06T06:35:53.218Z,79.46
2018-12-06T06:36:57.247Z,80.03
2018-12-06T06:38:01.327Z,79.63
2018-12-06T06:39:07.274Z,79.59
2018-12-06T06:40:11.442Z,79.71
2018-12-06T06:41:15.496Z,79.82
2018-12-06T06:42:19.693Z,79.92
2018-12-06T06:43:23.821Z,80.34
2018-12-06T06:44:28.011Z,80.37
2018-12-06T06:45:32.045Z,80.31
2018-12-06T06:46:36.117Z,80.27
2018-12-06T06:47:40.251Z,80.39
2018-12-06T06:48:44.309Z,80.33
2018-12-06T06:49:48.481Z,79.99
2018-12-06T06:50:52.563Z,80.30
2018-12-06T06:51:56.834Z,80.27
2018-12-06T06:53:00.986Z,80.42
2018-12-06T06:54:05.074Z,80.59
2018-12-06T06:55:09.288Z,79.76
2018-12-06T06:56:13.379Z,79.76
2018-12-06T06:57:17.432Z,79.83
2018-12-06T06:58:21.596Z,80.29
2018-12-06T06:59:26.164Z,79.88
2018-12-06T07:00:30.716Z,79.74
2018-12-06T07:01:34.753Z,79.84
2018-12-06T07:02:38.853Z,80.11
2018-12-06T07:03:42.924Z,80.29
2018-12-06T07:04:46.928Z,79.56
2018-12-06T07:05:51.146Z,80.29
2018-12-06T07:06:55.271Z,79.89
2018-12-06T07:07:59.451Z,80.60
2018-12-06T07:09:05.784Z,80.02
2018-12-06T07:10:10.092Z,80.23
2018-12-06T07:11:14.185Z,80.66
2018-12-06T07:12:18.337Z,79.93
2018-12-06T07:13:22.359Z,80.65
2018-12-06T07:14:26.664Z,80.46
2018-12-06T07:15:31.051Z,80.19
2018-12-06T07:16:35.351Z,80.18
2018-12-06T07:17:39.439Z,80.19
2018-12-06T07:18:43.467Z,80.23
2018-12-06T07:19:47.577Z,80.56
2018-12-06T07:20:51.725Z,80.69
2018-12-06T07:21:55.950Z,80.47
2018-12-06T07:23:01.005Z,80.24
2018-12-06T07:24:05.358Z,80.18
2018-12-06T07:25:10.091Z,80.89
2018-12-06T07:26:14.210Z,80.25
2018-12-06T07:27:18.288Z,80.73
2018-12-06T07:28:23.326Z,80.08
2018-12-06T07:29:27.443Z,80.73
2018-12-06T07:30:31.616Z,80.70
2018-12-06T07:31:35.787Z,80.75
2018-12-06T07:32:39.984Z,80.09
2018-12-06T07:33:44.204Z,80.18
2018-12-06T07:34:48.367Z,80.40
2018-12-06T07:35:52.460Z,80.34
2018-12-06T07:36:56.663Z,80.22
2018-12-06T07:38:00.832Z,80.27
2018-12-06T07:39:07.747Z,80.32
2018-12-06T07:40:11.947Z,80.86
2018-12-06T07:41:16.106Z,80.30
2018-12-06T07:42:20.198Z,80.20
2018-12-06T07:43:24.239Z,80.17
2018-12-06T07:44:28.291Z,81.19
2018-12-06T07:45:32.443Z,80.36
2018-12-06T07:46:36.570Z,80.69
2018-12-06T07:47:40.655Z,80.28
2018-12-06T07:48:44.704Z,80.76
2018-12-06T07:49:48.753Z,81.04
2018-12-06T07:50:52.773Z,81.07
2018-12-06T07:51:56.989Z,80.68
2018-12-06T07:53:01.282Z,80.43
2018-12-06T07:54:05.463Z,80.39
2018-12-06T07:55:09.679Z,80.47
2018-12-06T07:56:13.752Z,80.45
2018-12-06T07:57:17.998Z,80.96
2018-12-06T07:58:22.187Z,80.54
2018-12-06T07:59:26.896Z,80.78
2018-12-06T08:00:31.010Z,80.48
2018-12-06T08:01:35.118Z,81.12
2018-12-06T08:02:39.312Z,80.55
2018-12-06T08:03:43.502Z,80.52
2018-12-06T08:04:47.531Z,80.53
2018-12-06T08:05:51.698Z,81.36
2018-12-06T08:06:55.832Z,80.47
2018-12-06T08:07:59.922Z,80.97
2018-12-06T08:09:07.772Z,80.40
2018-12-06T08:10:12.939Z,81.12
2018-12-06T08:11:17.146Z,80.46
2018-12-06T08:12:21.205Z,80.71
2018-12-06T08:13:25.614Z,80.49
2018-12-06T08:14:29.743Z,80.88
2018-12-06T08:15:33.767Z,80.98
2018-12-06T08:16:37.801Z,81.59
2018-12-06T08:17:42.025Z,80.63
2018-12-06T08:18:46.115Z,80.73
2018-12-06T08:19:50.255Z,80.65
2018-12-06T08:20:54.406Z,81.22
2018-12-06T08:21:58.866Z,81.16
2018-12-06T08:23:02.951Z,80.76
2018-12-06T08:24:06.994Z,80.92
2018-12-06T08:25:11.055Z,80.72
2018-12-06T08:26:15.238Z,80.88
2018-12-06T08:27:19.330Z,80.42
2018-12-06T08:28:23.606Z,80.39
2018-12-06T08:29:27.650Z,81.00
2018-12-06T08:30:31.744Z,81.02
2018-12-06T08:31:35.853Z,80.74
2018-12-06T08:32:39.919Z,81.63
2018-12-06T08:33:44.050Z,81.52
2018-12-06T08:34:48.261Z,80.98
2018-12-06T08:35:52.306Z,81.01
2018-12-06T08:36:56.358Z,81.42
2018-12-06T08:38:00.448Z,81.13
2018-12-06T08:39:06.455Z,81.14
2018-12-06T08:40:10.641Z,81.09
2018-12-06T08:41:14.747Z,81.12
2018-12-06T08:42:18.945Z,81.12
2018-12-06T08:43:22.965Z,81.01
2018-12-06T08:44:27.061Z,81.49
2018-12-06T08:45:31.331Z,81.13
2018-12-06T08:46:35.462Z,80.80
2018-12-06T08:47:39.537Z,81.28
2018-12-06T08:48:43.620Z,81.68
2018-12-06T08:49:47.780Z,81.42
2018-12-06T08:50:51.899Z,81.10
2018-12-06T08:51:56.618Z,81.03
2018-12-06T08:53:00.670Z,81.18
2018-12-06T08:54:04.747Z,81.22
2018-12-06T08:55:08.823Z,80.92
2018-12-06T08:56:12.882Z,81.39
2018-12-06T08:57:17.162Z,81.22
2018-12-06T08:58:21.275Z,81.34
2018-12-06T08:59:25.383Z,81.76
2018-12-06T09:00:29.538Z,80.99
2018-12-06T09:01:33.700Z,81.30
2018-12-06T09:02:37.776Z,81.16
2018-12-06T09:03:41.921Z,81.68
2018-12-06T09:04:46.040Z,81.33
2018-12-06T09:05:50.211Z,81.28
2018-12-06T09:06:54.332Z,81.28
2018-12-06T09:07:58.567Z,81.50
2018-12-06T09:09:03.699Z,81.42
2018-12-06T09:10:08.672Z,81.52
2018-12-06T09:11:12.819Z,81.26
2018-12-06T09:12:16.939Z,81.04
2018-12-06T09:13:21.496Z,80.96
2018-12-06T09:14:25.759Z,81.45
2018-12-06T09:15:29.752Z,81.33
2018-12-06T09:16:34.000Z,81.54
2018-12-06T09:17:38.092Z,81.42
2018-12-06T09:18:42.139Z,81.10
2018-12-06T09:19:46.239Z,81.27
2018-12-06T09:20:50.259Z,81.46
2018-12-06T09:21:54.371Z,81.48
2018-12-06T09:22:58.462Z,81.59
2018-12-06T09:24:02.556Z,81.42
2018-12-06T09:25:06.858Z,81.51
2018-12-06T09:26:10.918Z,81.72
2018-12-06T09:27:14.965Z,81.42
2018-12-06T09:28:19.011Z,81.38
2018-12-06T09:29:23.189Z,81.67
2018-12-06T09:30:27.315Z,81.52
2018-12-06T09:31:31.370Z,81.36
2018-12-06T09:32:35.398Z,81.64
2018-12-06T09:33:50.894Z,81.39
2018-12-06T09:34:55.017Z,81.58
2018-12-06T09:35:59.015Z,81.56
2018-12-06T09:37:03.171Z,81.36
2018-12-06T09:38:07.325Z,81.60
2018-12-06T09:39:11.711Z,81.49
2018-12-06T09:40:15.986Z,81.78
2018-12-06T09:41:20.060Z,81.74
2018-12-06T09:42:24.291Z,81.72
2018-12-06T09:43:28.295Z,81.79
2018-12-06T09:44:32.471Z,81.96
2018-12-06T09:45:36.788Z,81.64
2018-12-06T09:46:40.809Z,81.64
2018-12-06T09:47:44.901Z,81.77
2018-12-06T09:48:48.934Z,81.80
2018-12-06T09:49:52.990Z,81.79
2018-12-06T09:50:57.307Z,82.07
2018-12-06T09:52:04.150Z,82.08
2018-12-06T09:53:08.187Z,81.97
2018-12-06T09:54:12.205Z,81.98
2018-12-06T09:55:16.307Z,82.27
2018-12-06T09:56:20.492Z,82.24
2018-12-06T09:57:24.694Z,82.28
2018-12-06T09:58:28.862Z,82.07
2018-12-06T09:59:33.005Z,82.33
2018-12-06T10:00:37.024Z,82.30
2018-12-06T10:01:41.260Z,82.44
2018-12-06T10:02:45.354Z,82.39
2018-12-06T10:03:49.378Z,82.34
2018-12-06T10:04:53.439Z,82.46
2018-12-06T10:05:57.576Z,82.47
2018-12-06T10:07:01.758Z,82.30
2018-12-06T10:08:06.169Z,82.52
2018-12-06T10:09:10.816Z,82.30
2018-12-06T10:10:15.139Z,82.39
2018-12-06T10:11:19.459Z,82.32
2018-12-06T10:12:23.603Z,82.50
2018-12-06T10:13:27.858Z,82.49
2018-12-06T10:14:31.973Z,82.16
2018-12-06T10:15:36.093Z,82.38
2018-12-06T10:16:40.264Z,82.17
2018-12-06T10:17:44.491Z,82.36
2018-12-06T10:18:48.493Z,82.23
2018-12-06T10:19:52.579Z,82.17
2018-12-06T10:20:56.574Z,82.03
2018-12-06T10:22:00.983Z,82.19
2018-12-06T10:23:05.102Z,81.97
2018-12-06T10:24:09.143Z,81.95
2018-12-06T10:25:13.203Z,82.04
2018-12-06T10:26:17.227Z,82.09
2018-12-06T10:27:21.250Z,81.99
2018-12-06T10:28:25.398Z,81.93
2018-12-06T10:29:29.740Z,82.11
2018-12-06T10:30:34.059Z,82.17
2018-12-06T10:31:38.116Z,82.02
2018-12-06T10:32:42.129Z,82.03
2018-12-06T10:33:46.244Z,82.05
2018-12-06T10:34:53.369Z,81.89
2018-12-06T10:35:56.394Z,82.04
2018-12-06T10:37:00.465Z,81.97
2018-12-06T10:38:04.462Z,81.72
2018-12-06T10:39:08.990Z,82.11
2018-12-06T10:40:13.168Z,81.82
2018-12-06T10:41:17.234Z,81.74
2018-12-06T10:42:21.500Z,81.59
2018-12-06T10:43:25.620Z,81.37
2018-12-06T10:44:31.189Z,81.49
2018-12-06T10:45:35.441Z,81.67
2018-12-06T10:46:39.635Z,81.55
2018-12-06T10:47:43.695Z,81.48
2018-12-06T10:48:47.747Z,81.58
2018-12-06T10:49:51.826Z,81.25
2018-12-06T10:51:07.583Z,81.44
2018-12-06T10:52:12.022Z,81.36
2018-12-06T10:53:16.125Z,81.22
2018-12-06T10:54:20.813Z,81.25
2018-12-06T10:55:24.994Z,81.50
2018-12-06T10:56:29.099Z,81.19
2018-12-06T10:57:33.111Z,81.08
2018-12-06T10:58:37.693Z,80.93
2018-12-06T10:59:41.662Z,80.92
2018-12-06T11:00:57.151Z,80.91
2018-12-06T11:02:02.495Z,81.05
2018-12-06T11:03:14.022Z,81.07
2018-12-06T11:04:18.284Z,81.07
2018-12-06T11:05:22.389Z,80.87
2018-12-06T11:06:26.691Z,80.91
2018-12-06T11:07:30.823Z,80.83
2018-12-06T11:08:34.797Z,80.78
2018-12-06T11:09:38.795Z,80.76
2018-12-06T11:10:42.931Z,80.69
2018-12-06T11:11:47.041Z,80.69
2018-12-06T11:12:51.050Z,81.03
2018-12-06T11:13:55.187Z,80.60
2018-12-06T11:14:59.274Z,80.64
2018-12-06T11:16:03.613Z,80.59
2018-12-06T11:17:07.719Z,80.70
2018-12-06T11:18:11.749Z,80.62
2018-12-06T11:19:15.759Z,80.67
2018-12-06T11:20:19.819Z,80.82
2018-12-06T11:21:24.015Z,80.63
2018-12-06T11:22:28.034Z,80.50
2018-12-06T11:23:32.046Z,80.44
2018-12-06T11:24:36.203Z,80.48
2018-12-06T11:25:40.205Z,80.47
2018-12-06T11:26:44.246Z,80.54
2018-12-06T11:27:48.370Z,80.43
2018-12-06T11:28:52.446Z,80.56
2018-12-06T11:29:56.738Z,80.65
2018-12-06T11:31:00.876Z,80.39
2018-12-06T11:32:05.198Z,80.39
2018-12-06T11:33:09.281Z,80.69
2018-12-06T11:34:13.454Z,80.50
2018-12-06T11:35:17.504Z,80.56
2018-12-06T11:36:22.583Z,79.91
2018-12-06T11:37:26.723Z,80.35
2018-12-06T11:38:31.414Z,80.34
2018-12-06T11:39:36.070Z,80.28
2018-12-06T11:40:40.154Z,80.52
2018-12-06T11:41:44.262Z,80.24
2018-12-06T11:42:48.311Z,80.30
2018-12-06T11:43:52.526Z,80.30
2018-12-06T11:44:56.682Z,80.09
2018-12-06T11:46:00.704Z,80.31
2018-12-06T11:47:04.887Z,80.24
2018-12-06T11:48:08.952Z,80.01
2018-12-06T11:49:13.124Z,80.35
2018-12-06T11:50:17.354Z,80.39
2018-12-06T11:51:21.460Z,80.27
2018-12-06T11:52:25.487Z,80.19
2018-12-06T11:53:29.536Z,80.24
2018-12-06T11:54:33.614Z,80.22
2018-12-06T11:55:38.138Z,80.10
2018-12-06T11:56:42.689Z,80.24
2018-12-06T11:57:46.799Z,80.18
2018-12-06T11:58:51.518Z,80.29
2018-12-06T11:59:56.190Z,80.16
2018-12-06T12:01:01.142Z,80.21
2018-12-06T12:02:09.934Z,80.40
2018-12-06T12:03:11.327Z,80.49
2018-12-06T12:04:15.519Z,80.69
2018-12-06T12:05:20.118Z,80.54
2018-12-06T12:06:25.095Z,80.59
2018-12-06T12:07:29.550Z,80.37
2018-12-06T12:08:33.755Z,80.26
2018-12-06T12:09:38.182Z,80.24
2018-12-06T12:10:42.471Z,80.59
2018-12-06T12:11:46.538Z,80.28
2018-12-06T12:12:50.783Z,80.45
2018-12-06T12:13:54.847Z,80.38
2018-12-06T12:14:59.000Z,80.36
2018-12-06T12:16:03.148Z,80.50
2018-12-06T12:17:07.262Z,80.37
2018-12-06T12:18:11.513Z,80.22
2018-12-06T12:19:15.653Z,80.24
2018-12-06T12:20:19.809Z,80.22
2018-12-06T12:21:24.031Z,80.18
2018-12-06T12:22:28.182Z,80.00
2018-12-06T12:23:32.203Z,80.04
2018-12-06T12:24:36.326Z,80.04
2018-12-06T12:25:40.467Z,80.04
2018-12-06T12:26:44.500Z,79.82
2018-12-06T12:27:48.595Z,79.93
2018-12-06T12:28:52.717Z,79.65
2018-12-06T12:29:56.870Z,79.56
2018-12-06T12:31:00.883Z,79.54
2018-12-06T12:32:05.142Z,79.51
2018-12-06T12:33:09.174Z,79.42
2018-12-06T12:34:13.247Z,79.45
2018-12-06T12:35:18.826Z,79.44
2018-12-06T12:36:23.335Z,79.47
2018-12-06T12:37:27.468Z,79.40
2018-12-06T12:38:31.862Z,79.24
2018-12-06T12:39:35.918Z,79.17
2018-12-06T12:40:40.360Z,79.18
2018-12-06T12:41:44.574Z,79.14
2018-12-06T12:42:48.632Z,78.93
2018-12-06T12:43:52.813Z,78.99
2018-12-06T12:44:56.863Z,78.96
2018-12-06T12:46:00.899Z,78.88
2018-12-06T12:47:05.036Z,78.97
2018-12-06T12:48:09.191Z,78.77
2018-12-06T12:49:13.195Z,78.75
2018-12-06T12:50:17.320Z,78.64
2018-12-06T12:51:22.717Z,78.55
2018-12-06T12:52:26.748Z,78.67
2018-12-06T12:53:30.771Z,78.52
2018-12-06T12:54:34.867Z,78.52
2018-12-06T12:55:39.120Z,78.60
2018-12-06T12:56:43.160Z,78.54
2018-12-06T12:57:47.457Z,78.50
2018-12-06T12:58:51.531Z,78.40
2018-12-06T12:59:55.571Z,78.32
2018-12-06T13:00:59.698Z,78.03
2018-12-06T13:02:03.780Z,78.17
2018-12-06T13:03:08.079Z,78.20
2018-12-06T13:04:12.174Z,78.16
2018-12-06T13:05:16.281Z,78.13
2018-12-06T13:06:20.368Z,78.14
2018-12-06T13:07:24.426Z,78.04
2018-12-06T13:08:28.578Z,78.34
2018-12-06T13:09:32.713Z,78.25
2018-12-06T13:10:36.883Z,78.27
2018-12-06T13:11:40.922Z,78.24
2018-12-06T13:12:45.081Z,78.15
2018-12-06T13:13:49.226Z,78.25
2018-12-06T13:14:53.434Z,78.30
2018-12-06T13:15:57.450Z,78.25
2018-12-06T13:17:01.751Z,78.40
2018-12-06T13:18:05.847Z,78.09
2018-12-06T13:19:09.918Z,78.09
2018-12-06T13:20:14.170Z,78.09
2018-12-06T13:21:18.391Z,78.29
2018-12-06T13:22:22.640Z,78.21
2018-12-06T13:23:26.680Z,78.11
2018-12-06T13:24:31.104Z,77.93
2018-12-06T13:25:35.207Z,78.20
2018-12-06T13:26:39.266Z,78.15
2018-12-06T13:27:43.299Z,78.17
2018-12-06T13:28:47.543Z,77.95
2018-12-06T13:29:51.773Z,78.07
2018-12-06T13:30:56.058Z,78.11
2018-12-06T13:32:00.233Z,78.11
2018-12-06T13:33:04.463Z,78.03
2018-12-06T13:34:08.530Z,78.10
2018-12-06T13:35:19.169Z,78.10
2018-12-06T13:36:23.316Z,77.93
2018-12-06T13:37:27.500Z,78.06
2018-12-06T13:38:31.623Z,78.05
2018-12-06T13:39:35.685Z,77.97
2018-12-06T13:40:39.827Z,77.59
2018-12-06T13:41:43.942Z,77.57
2018-12-06T13:42:48.223Z,77.95
2018-12-06T13:43:52.532Z,77.73
2018-12-06T13:44:56.742Z,77.67
2018-12-06T13:46:00.946Z,77.95
2018-12-06T13:47:05.228Z,77.74
2018-12-06T13:48:09.449Z,77.50
2018-12-06T13:49:13.454Z,77.58